Bookmark and Share
Track history (hours):
 

De Vrouw Marie

Last reported at 2014-Feb-27 19:21 UTC. Time now 2014-Apr-19 00:04 UTC.
Position N 50°36' E 000°21'.
Warning: this ship's position is 50 days out of date.

Length 36 m; draft 3.6 m.

Type: Other ship. MMSI: 357030000.

NotesDate/timePositionNaut miles runAvg speedWind from/ knotsBaromVisibWave heightAir tempDewpointWater temp
2014-Feb-27 19:21N 50°36' E 000°21'8 7.7
2014-Feb-27 18:21N 50°38' E 000°33'7 9.0
2014-Feb-27 17:33N 50°42' E 000°42'3410.1
2014-Feb-27 14:12N 51°03' E 001°25'6 9.0
2014-Feb-27 13:33N 51°07' E 001°32'7 7.4
2014-Feb-27 12:33N 51°11' E 001°41'117 8.3
2014-Feb-26 22:32N 52°34' E 003°54'3210.5
2014-Feb-26 19:28N 52°53' E 004°38'7 7.7
2014-Feb-26 18:33N 52°57' E 004°47'0 0.2
2014-Feb-26 17:33N 52°57' E 004°47'0 0.0
2014-Feb-26 16:33N 52°57' E 004°47'0 0.0
2014-Feb-26 15:33N 52°57' E 004°47'0 0.0
2014-Feb-26 14:30N 52°57' E 004°47'0 0.0
2014-Feb-26 13:33N 52°57' E 004°47'0 0.0
2014-Feb-26 12:33N 52°57' E 004°47'0 0.0
2014-Feb-26 11:33N 52°57' E 004°47'0 0.0
2014-Feb-26 10:33N 52°57' E 004°47'0 0.0
2014-Feb-26 09:29N 52°57' E 004°47'0 0.4
2014-Feb-26 08:34N 52°57' E 004°47'0 0.5
2014-Feb-26 07:33N 52°57' E 004°46'0 0.0
2014-Feb-26 06:32N 52°57' E 004°46'0 0.0
2014-Feb-26 05:29N 52°57' E 004°46'0 0.0
2014-Feb-26 04:33N 52°57' E 004°46'0 0.0
2014-Feb-26 03:33N 52°57' E 004°46'0 0.0
2014-Feb-26 02:33N 52°57' E 004°46'0 0.0
2014-Feb-26 01:32N 52°57' E 004°46'0 0.0
2014-Feb-26 00:33N 52°57' E 004°46'0 0.0
2014-Feb-25 23:31N 52°57' E 004°46'0 0.0
2014-Feb-25 22:33N 52°57' E 004°46'0 0.0
2014-Feb-25 21:32N 52°57' E 004°46'0 0.0
2014-Feb-25 20:32N 52°57' E 004°46'0 0.0
2014-Feb-25 19:33N 52°57' E 004°46'0 0.0
2014-Feb-25 18:30N 52°57' E 004°46'0 0.0
2014-Feb-25 17:33N 52°57' E 004°46'0 0.0
2014-Feb-25 16:33N 52°57' E 004°46'0 0.0
2014-Feb-25 15:32N 52°57' E 004°46'0 0.0
2014-Feb-25 14:33N 52°57' E 004°46'0 0.0
2014-Feb-25 13:33N 52°57' E 004°46'0 0.0
2014-Feb-25 12:33N 52°57' E 004°46'0 0.0
2014-Feb-25 11:33N 52°57' E 004°46'0 0.0
2014-Feb-25 10:32N 52°57' E 004°46'0 0.0
2014-Feb-25 09:33N 52°57' E 004°46'0 0.0
2014-Feb-25 08:33N 52°57' E 004°46'0 0.0
2014-Feb-25 07:33N 52°57' E 004°46'0 0.0
2014-Feb-25 06:33N 52°57' E 004°46'0 0.0
2014-Feb-25 05:33N 52°57' E 004°46'0 0.0
2014-Feb-25 04:33N 52°57' E 004°46'0 0.0
2014-Feb-25 03:33N 52°57' E 004°46'0 0.0
2014-Feb-25 02:33N 52°57' E 004°46'0 0.0
2014-Feb-25 01:33N 52°57' E 004°46'0 0.0
2014-Feb-25 00:32N 52°57' E 004°46'0 0.0
2014-Feb-24 23:33N 52°57' E 004°46'0 0.0
2014-Feb-24 22:33N 52°57' E 004°46'0 0.0
2014-Feb-24 21:33N 52°57' E 004°46'0 0.0
2014-Feb-24 20:32N 52°57' E 004°46'0 0.0
2014-Feb-24 19:33N 52°57' E 004°46'0 0.0
2014-Feb-24 18:33N 52°57' E 004°46'0 0.0
2014-Feb-24 17:33N 52°57' E 004°46'0 0.0
2014-Feb-24 16:31N 52°57' E 004°46'0 0.0
2014-Feb-24 15:33N 52°57' E 004°46'0 0.0
2014-Feb-24 14:33N 52°57' E 004°46'0 0.0
2014-Feb-24 13:32N 52°57' E 004°46'0 0.0
2014-Feb-24 12:33N 52°57' E 004°46'0 0.0
2014-Feb-24 11:33N 52°57' E 004°46'0 0.0
2014-Feb-24 10:33N 52°57' E 004°46'0 0.0
2014-Feb-24 09:33N 52°57' E 004°46'0 0.0
2014-Feb-24 08:33N 52°57' E 004°46'0 0.0
2014-Feb-24 07:33N 52°57' E 004°46'0 0.0
2014-Feb-24 06:33N 52°57' E 004°46'0 0.0
2014-Feb-24 05:33N 52°57' E 004°46'0 0.0
2014-Feb-24 04:33N 52°57' E 004°46'0 0.0
2014-Feb-24 03:33N 52°57' E 004°46'0 0.0
2014-Feb-24 02:33N 52°57' E 004°46'0 0.0
2014-Feb-24 01:33N 52°57' E 004°46'0 0.0
2014-Feb-24 00:33N 52°57' E 004°46'0 0.0
2014-Feb-23 23:33N 52°57' E 004°46'0 0.0
2014-Feb-23 22:33N 52°57' E 004°46'0 0.0
2014-Feb-23 21:33N 52°57' E 004°46'0 0.0
2014-Feb-23 20:33N 52°57' E 004°46'0 0.0
2014-Feb-23 19:33N 52°57' E 004°46'0 0.0
2014-Feb-23 18:33N 52°57' E 004°46'0 0.0
2014-Feb-23 17:33N 52°57' E 004°46'0 0.0
2014-Feb-23 16:33N 52°57' E 004°46'0 0.0
2014-Feb-23 15:33N 52°57' E 004°46'0 0.0
2014-Feb-23 14:33N 52°57' E 004°46'0 0.0
2014-Feb-23 13:33N 52°57' E 004°46'0 0.0
2014-Feb-23 12:33N 52°57' E 004°46'0 0.0
2014-Feb-23 11:34N 52°57' E 004°46'0 0.0
2014-Feb-23 10:33N 52°57' E 004°46'0 0.0
2014-Feb-23 09:33N 52°57' E 004°46'0 0.0
2014-Feb-23 08:32N 52°57' E 004°46'0 0.0
2014-Feb-23 07:33N 52°57' E 004°46'0 0.0
2014-Feb-23 06:33N 52°57' E 004°46'0 0.0
2014-Feb-23 05:33N 52°57' E 004°46'0 0.0
2014-Feb-23 04:33N 52°57' E 004°46'0 0.0
2014-Feb-23 03:33N 52°57' E 004°46'0 0.0
2014-Feb-23 02:33N 52°57' E 004°46'0 0.0
2014-Feb-23 01:33N 52°57' E 004°46'0 0.0
2014-Feb-23 00:33N 52°57' E 004°46'0 0.0
2014-Feb-22 23:33N 52°57' E 004°46'0 0.0
2014-Feb-22 22:33N 52°57' E 004°46'0 0.0
2014-Feb-22 21:33N 52°57' E 004°46'0 0.0
2014-Feb-22 20:33N 52°57' E 004°46'0 0.0
2014-Feb-22 14:33N 52°57' E 004°46'0 0.0
2014-Feb-22 13:33N 52°57' E 004°46'0 0.0
2014-Feb-22 12:33N 52°57' E 004°46'0 0.0
2014-Feb-22 11:33N 52°57' E 004°46'0 0.0
2014-Feb-22 10:33N 52°57' E 004°46'0 0.0
2014-Feb-22 09:33N 52°57' E 004°46'0 0.0
2014-Feb-22 08:33N 52°57' E 004°46'0 0.0
2014-Feb-22 07:33N 52°57' E 004°46'0 0.0
2014-Feb-22 06:31N 52°57' E 004°46'0 0.0
2014-Feb-22 05:33N 52°57' E 004°46'0 0.0
2014-Feb-22 04:33N 52°57' E 004°46'0 0.0
2014-Feb-22 03:33N 52°57' E 004°46'0 0.0
2014-Feb-22 02:33N 52°57' E 004°46'0 0.0
2014-Feb-22 01:33N 52°57' E 004°46'0 0.0
2014-Feb-22 00:33N 52°57' E 004°46'0 0.0
2014-Feb-21 23:32N 52°57' E 004°46'0 0.0
2014-Feb-21 22:33N 52°57' E 004°46'0 0.0
2014-Feb-21 21:33N 52°57' E 004°46'0 0.0
2014-Feb-21 20:33N 52°57' E 004°46'0 0.0
2014-Feb-21 19:33N 52°57' E 004°46'0 0.0
2014-Feb-21 18:33N 52°57' E 004°46'0 0.0
2014-Feb-21 17:32N 52°57' E 004°46'0 0.0
2014-Feb-21 16:33N 52°57' E 004°46'0 0.0
2014-Feb-21 15:33N 52°57' E 004°46'0 0.0
2014-Feb-21 14:33N 52°57' E 004°46'0 0.0
2014-Feb-21 13:33N 52°57' E 004°46'0 0.0
2014-Feb-21 12:33N 52°57' E 004°46'0 0.0
2014-Feb-21 11:33N 52°57' E 004°46'0 0.0
2014-Feb-21 10:34N 52°57' E 004°46'0 0.0
2014-Feb-21 09:33N 52°57' E 004°46'0 0.0
2014-Feb-21 08:28N 52°57' E 004°46'0 0.0
2014-Feb-21 07:33N 52°57' E 004°46'0 0.0
2014-Feb-21 06:33N 52°57' E 004°46'0 0.0
2014-Feb-21 05:33N 52°57' E 004°46'0 0.0
2014-Feb-21 04:33N 52°57' E 004°46'0 0.0
2014-Feb-21 03:33N 52°57' E 004°46'0 0.0
2014-Feb-21 02:33N 52°57' E 004°46'0 0.0
2014-Feb-21 01:33N 52°57' E 004°46'0 0.0
2014-Feb-21 00:33N 52°57' E 004°46'0 0.0
2014-Feb-20 23:33N 52°57' E 004°46'0 0.0
2014-Feb-20 22:33N 52°57' E 004°46'0 0.0
2014-Feb-20 21:33N 52°57' E 004°46'0 0.0
2014-Feb-20 20:33N 52°57' E 004°46'0 0.0
2014-Feb-20 19:33N 52°57' E 004°46'0 0.0
2014-Feb-20 18:33N 52°57' E 004°46'0 0.0
2014-Feb-20 17:33N 52°57' E 004°46'0 0.0
2014-Feb-20 16:33N 52°57' E 004°46'0 0.0
2014-Feb-20 15:33N 52°57' E 004°46'0 0.0
2014-Feb-20 14:33N 52°57' E 004°46'0 0.0
2014-Feb-20 13:33N 52°57' E 004°46'0 0.0
2014-Feb-20 12:33N 52°57' E 004°46'0 0.0
2014-Feb-20 11:33N 52°57' E 004°46'0 0.0
2014-Feb-20 10:33N 52°57' E 004°46'0 0.0
2014-Feb-20 09:33N 52°57' E 004°46'0 0.0
2014-Feb-20 08:33N 52°57' E 004°46'0 0.0
2014-Feb-20 07:33N 52°57' E 004°46'0 0.0
2014-Feb-20 06:33N 52°57' E 004°46'0 0.0
2014-Feb-20 05:33N 52°57' E 004°46'0 0.0
2014-Feb-20 04:33N 52°57' E 004°46'0 0.0
2014-Feb-20 03:33N 52°57' E 004°46'0 0.0
2014-Feb-20 02:33N 52°57' E 004°46'0 0.0
2014-Feb-20 01:33N 52°57' E 004°46'0 0.0
2014-Feb-20 00:33N 52°57' E 004°46'0 0.0
2014-Feb-19 23:32N 52°57' E 004°46'0 0.0
2014-Feb-19 22:33N 52°57' E 004°46'0 0.0
2014-Feb-19 21:33N 52°57' E 004°46'0 0.0
2014-Feb-19 20:33N 52°57' E 004°46'0 0.0
2014-Feb-19 19:33N 52°57' E 004°46'0 0.0
2014-Feb-19 18:33N 52°57' E 004°46'0 0.0
2014-Feb-19 17:33N 52°57' E 004°46'0 0.0
2014-Feb-19 16:33N 52°57' E 004°46'0 0.0
2014-Feb-19 15:33N 52°57' E 004°46'0 0.0
2014-Feb-19 14:33N 52°57' E 004°46'0 0.0
2014-Feb-19 13:33N 52°57' E 004°46'0 0.0
2014-Feb-19 12:33N 52°57' E 004°46'0 0.0
2014-Feb-19 11:33N 52°57' E 004°46'0 0.0
2014-Feb-19 10:33N 52°57' E 004°46'0 0.0
2014-Feb-19 09:33N 52°57' E 004°46'0 0.0
2014-Feb-19 08:33N 52°57' E 004°46'0 0.0
2014-Feb-19 07:33N 52°57' E 004°46'0 0.0
2014-Feb-19 06:33N 52°57' E 004°46'0 0.0
2014-Feb-19 05:33N 52°57' E 004°46'0 0.0
2014-Feb-19 04:33N 52°57' E 004°46'0 0.0
2014-Feb-19 03:33N 52°57' E 004°46'0 0.0
2014-Feb-19 02:33N 52°57' E 004°46'0 0.0
2014-Feb-19 01:33N 52°57' E 004°46'0 0.0
2014-Feb-19 00:33N 52°57' E 004°46'0 0.0
2014-Feb-18 23:33N 52°57' E 004°46'0 0.0
2014-Feb-18 22:33N 52°57' E 004°46'0 0.0
2014-Feb-18 21:33N 52°57' E 004°46'0 0.0
2014-Feb-18 20:33N 52°57' E 004°46'0 0.0
2014-Feb-18 19:33N 52°57' E 004°46'0 0.0
2014-Feb-18 18:32N 52°57' E 004°46'0 0.0
2014-Feb-18 17:33N 52°57' E 004°46'0 0.0
2014-Feb-18 16:33N 52°57' E 004°46'0 0.0
2014-Feb-18 15:36N 52°57' E 004°46'0 0.0
2014-Feb-18 14:33N 52°57' E 004°46'0 0.0
2014-Feb-18 13:33N 52°57' E 004°46'0 0.0
2014-Feb-18 12:33N 52°57' E 004°46'0 0.0
2014-Feb-18 11:33N 52°57' E 004°46'0 0.0
2014-Feb-18 10:33N 52°57' E 004°46'0 0.0
2014-Feb-18 09:33N 52°57' E 004°46'0 0.0
2014-Feb-18 08:33N 52°57' E 004°46'0 0.0
2014-Feb-18 07:33N 52°57' E 004°46'0 0.0
2014-Feb-18 06:33N 52°57' E 004°46'0 0.0
2014-Feb-18 05:33N 52°57' E 004°46'0 0.0
2014-Feb-18 04:33N 52°57' E 004°46'0 0.0
2014-Feb-18 03:33N 52°57' E 004°46'0 0.0
2014-Feb-18 02:33N 52°57' E 004°46'0 0.0
2014-Feb-18 01:33N 52°57' E 004°46'0 0.0
2014-Feb-18 00:33N 52°57' E 004°46'0 0.0
2014-Feb-17 23:33N 52°57' E 004°46'0 0.0
2014-Feb-17 22:33N 52°57' E 004°46'0 0.0
2014-Feb-17 21:33N 52°57' E 004°46'0 0.0
2014-Feb-17 20:33N 52°57' E 004°46'0 0.0
2014-Feb-17 19:33N 52°57' E 004°46'  

Dump ship's entire track history

sailing weather and tide predictions

De Vrouw Marie — HP9974 — position and weather